createdAt,value
2019-01-15T00:01:41.840Z,1.00
2019-01-15T00:05:42.869Z,0.87
2019-01-15T00:09:43.865Z,0.90
2019-01-15T00:13:44.910Z,0.70
2019-01-15T00:17:45.936Z,0.87
2019-01-15T00:21:47.006Z,0.80
2019-01-15T00:25:48.023Z,0.77
2019-01-15T00:29:50.544Z,0.97
2019-01-15T00:33:51.558Z,1.03
2019-01-15T00:37:52.584Z,0.67
2019-01-15T00:41:54.078Z,1.20
2019-01-15T00:45:55.240Z,0.70
2019-01-15T00:49:56.228Z,1.30
2019-01-15T00:53:57.268Z,1.17
2019-01-15T00:57:58.240Z,1.00
2019-01-15T01:01:59.292Z,1.20
2019-01-15T01:06:00.267Z,1.20
2019-01-15T01:10:01.836Z,1.40
2019-01-15T01:14:03.513Z,0.90
2019-01-15T01:18:05.181Z,1.40
2019-01-15T01:22:07.208Z,1.10
2019-01-15T01:26:08.257Z,1.20
2019-01-15T01:30:15.728Z,1.13
2019-01-15T01:34:18.082Z,0.90
2019-01-15T01:38:20.555Z,0.87
2019-01-15T01:42:21.590Z,1.37
2019-01-15T01:46:22.564Z,0.97
2019-01-15T01:50:23.643Z,1.33
2019-01-15T01:54:24.814Z,1.10
2019-01-15T01:58:26.366Z,1.03
2019-01-15T02:02:27.861Z,1.27
2019-01-15T02:06:29.533Z,1.03
2019-01-15T02:10:31.588Z,1.03
2019-01-15T02:14:32.557Z,0.60
2019-01-15T02:18:34.012Z,0.67
2019-01-15T02:22:35.079Z,0.60
2019-01-15T02:26:36.054Z,1.30
2019-01-15T02:30:37.091Z,0.67
2019-01-15T02:34:38.097Z,0.80
2019-01-15T02:38:39.625Z,1.20
2019-01-15T02:42:46.453Z,0.50
2019-01-15T02:46:43.480Z,0.67
2019-01-15T02:50:44.447Z,0.90
2019-01-15T02:54:45.500Z,0.87
2019-01-15T02:58:46.995Z,0.83
2019-01-15T03:02:48.111Z,0.53
2019-01-15T03:06:50.176Z,1.20
2019-01-15T03:10:51.229Z,0.97
2019-01-15T03:14:53.274Z,0.83
2019-01-15T03:18:54.315Z,0.70
2019-01-15T03:22:56.259Z,0.90
2019-01-15T03:26:57.313Z,1.00
2019-01-15T03:30:58.513Z,0.90
2019-01-15T03:35:00.519Z,0.97
2019-01-15T03:39:02.542Z,0.60
2019-01-15T03:43:05.050Z,1.70
2019-01-15T03:47:06.025Z,1.33
2019-01-15T03:51:07.672Z,0.70
2019-01-15T03:55:08.731Z,1.03
2019-01-15T03:59:09.967Z,1.17
2019-01-15T04:03:10.934Z,1.37
2019-01-15T04:07:12.684Z,1.20
2019-01-15T04:11:13.700Z,1.40
2019-01-15T04:15:14.846Z,1.40
2019-01-15T04:19:16.406Z,0.90
2019-01-15T04:23:18.005Z,1.43
2019-01-15T04:27:19.145Z,0.80
2019-01-15T04:31:20.251Z,0.93
2019-01-15T04:35:21.597Z,0.97
2019-01-15T04:39:22.950Z,1.23
2019-01-15T04:43:24.511Z,1.20
2019-01-15T04:47:26.734Z,0.90
2019-01-15T04:51:28.854Z,0.77
2019-01-15T04:55:29.966Z,1.20
2019-01-15T04:59:31.501Z,1.30
2019-01-15T05:03:32.529Z,1.00
2019-01-15T05:07:33.565Z,1.10
2019-01-15T05:11:34.592Z,1.40
2019-01-15T05:15:35.625Z,1.27
2019-01-15T05:19:36.701Z,1.27
2019-01-15T05:23:37.721Z,0.90
2019-01-15T05:27:38.825Z,0.90
2019-01-15T05:31:39.872Z,1.27
2019-01-15T05:35:40.891Z,1.23
2019-01-15T05:39:41.896Z,1.50
2019-01-15T05:43:42.956Z,1.27
2019-01-15T05:47:44.685Z,1.50
2019-01-15T05:51:46.430Z,1.43
2019-01-15T05:55:47.386Z,0.70
2019-01-15T05:59:48.421Z,1.30
2019-01-15T06:03:49.433Z,1.53
2019-01-15T06:07:51.708Z,1.47
2019-01-15T06:11:52.704Z,1.17
2019-01-15T06:15:53.789Z,1.43
2019-01-15T06:19:55.269Z,1.43
2019-01-15T06:23:56.282Z,1.00
2019-01-15T06:27:57.254Z,1.57
2019-01-15T06:31:58.220Z,1.33
2019-01-15T06:35:59.176Z,1.70
2019-01-15T06:40:01.733Z,1.40
2019-01-15T06:44:02.742Z,1.83
2019-01-15T06:48:04.040Z,1.90
2019-01-15T06:52:07.212Z,2.00
2019-01-15T06:56:08.347Z,1.80
2019-01-15T07:00:14.605Z,2.00
2019-01-15T07:04:16.032Z,2.17
2019-01-15T07:08:17.299Z,1.53
2019-01-15T07:12:18.830Z,1.40
2019-01-15T07:16:20.770Z,2.00
2019-01-15T07:20:21.948Z,1.90
2019-01-15T07:24:23.203Z,1.50
2019-01-15T07:28:24.990Z,2.20
2019-01-15T07:32:26.343Z,2.00
2019-01-15T07:36:27.781Z,2.27
2019-01-15T07:40:28.974Z,1.80
2019-01-15T07:44:31.332Z,2.00
2019-01-15T07:48:32.413Z,2.07
2019-01-15T07:52:37.955Z,1.67
2019-01-15T07:56:39.596Z,2.33
2019-01-15T08:00:41.218Z,1.97
2019-01-15T08:04:42.499Z,1.90
2019-01-15T08:08:44.191Z,1.43
2019-01-15T08:12:45.469Z,1.90
2019-01-15T08:16:47.062Z,1.27
2019-01-15T08:20:48.288Z,2.63
2019-01-15T08:24:49.604Z,1.80
2019-01-15T08:28:52.456Z,1.73
2019-01-15T08:32:54.667Z,2.33
2019-01-15T08:36:56.144Z,2.03
2019-01-15T08:40:57.227Z,1.80
2019-01-15T08:44:59.474Z,2.43
2019-01-15T08:49:00.694Z,1.70
2019-01-15T08:53:02.645Z,2.00
2019-01-15T08:57:03.794Z,1.73
2019-01-15T09:01:05.844Z,2.33
2019-01-15T09:05:06.943Z,1.10
2019-01-15T09:09:09.519Z,1.43
2019-01-15T09:13:10.599Z,1.80
2019-01-15T09:17:11.564Z,1.67
2019-01-15T09:21:12.644Z,2.03
2019-01-15T09:25:13.706Z,2.37
2019-01-15T09:29:15.949Z,1.93
2019-01-15T09:33:17.015Z,1.47
2019-01-15T09:37:18.224Z,3.00
2019-01-15T09:41:19.209Z,2.60
2019-01-15T09:45:22.053Z,3.10
2019-01-15T09:49:23.054Z,2.30
2019-01-15T09:53:24.094Z,2.13
2019-01-15T09:57:25.136Z,2.00
2019-01-15T10:01:26.289Z,2.33
2019-01-15T10:05:27.305Z,1.43
2019-01-15T10:09:28.484Z,2.03
2019-01-15T10:13:29.524Z,2.10
2019-01-15T10:17:30.605Z,2.13
2019-01-15T10:21:31.675Z,1.50
2019-01-15T10:25:34.096Z,2.80
2019-01-15T10:29:35.250Z,3.60
2019-01-15T10:33:46.160Z,2.17
2019-01-15T10:37:47.261Z,1.73
2019-01-15T10:41:48.276Z,2.60
2019-01-15T10:45:49.304Z,2.00
2019-01-15T10:49:50.415Z,1.97
2019-01-15T10:53:51.424Z,2.30
2019-01-15T10:57:52.420Z,2.43
2019-01-15T11:01:53.365Z,2.13
2019-01-15T11:05:56.189Z,2.20
2019-01-15T11:09:57.235Z,2.07
2019-01-15T11:13:58.486Z,1.87
2019-01-15T11:17:59.850Z,1.93
2019-01-15T11:22:02.805Z,2.00
2019-01-15T11:26:04.150Z,2.27
2019-01-15T11:30:06.875Z,2.13
2019-01-15T11:34:14.265Z,2.07
2019-01-15T11:38:15.610Z,1.33
2019-01-15T11:42:18.468Z,2.40
2019-01-15T11:46:20.081Z,1.90
2019-01-15T11:50:21.262Z,2.00
2019-01-15T11:54:22.451Z,2.27
2019-01-15T11:58:28.373Z,1.87
2019-01-15T12:02:36.200Z,2.00
2019-01-15T12:06:55.129Z,2.10
2019-01-15T12:11:15.451Z,2.20
2019-01-15T12:15:30.322Z,2.10
2019-01-15T12:19:55.540Z,1.93
2019-01-15T12:24:14.413Z,2.03
2019-01-15T12:28:40.565Z,1.50
2019-01-15T12:33:10.995Z,2.03
2019-01-15T12:37:29.760Z,1.13
2019-01-15T12:41:57.230Z,2.20
2019-01-15T12:46:20.200Z,1.67
2019-01-15T12:50:42.816Z,1.90
2019-01-15T12:55:14.860Z,1.50
2019-01-15T12:59:53.055Z,1.47
2019-01-15T13:04:07.010Z,1.47
2019-01-15T13:08:25.880Z,1.70
2019-01-15T13:12:58.574Z,1.67
2019-01-15T13:17:18.575Z,1.60
2019-01-15T13:21:44.726Z,1.27
2019-01-15T13:26:07.781Z,2.00
2019-01-15T13:30:46.009Z,1.47
2019-01-15T13:35:04.574Z,1.63
2019-01-15T13:39:31.223Z,1.90
2019-01-15T13:43:47.131Z,2.27
2019-01-15T13:48:04.451Z,1.77
2019-01-15T13:52:27.739Z,0.97
2019-01-15T13:56:46.396Z,1.50
2019-01-15T14:00:57.593Z,2.37
2019-01-15T14:05:20.148Z,1.77
2019-01-15T14:09:42.908Z,1.00
2019-01-15T14:14:03.208Z,1.10
2019-01-15T14:18:23.205Z,1.70
2019-01-15T14:22:43.411Z,1.60
2019-01-15T14:27:01.987Z,1.83
2019-01-15T14:31:20.637Z,1.47
2019-01-15T14:35:38.690Z,1.57
2019-01-15T14:39:58.585Z,2.27
2019-01-15T14:44:17.357Z,1.30
2019-01-15T14:48:36.640Z,1.40
2019-01-15T14:53:09.327Z,2.00
2019-01-15T14:57:28.103Z,1.47
2019-01-15T15:01:46.837Z,1.00
2019-01-15T15:06:05.965Z,0.47
2019-01-15T15:10:26.035Z,1.10
2019-01-15T15:14:53.906Z,1.90
2019-01-15T15:19:14.132Z,1.50
2019-01-15T15:23:34.220Z,1.50
2019-01-15T15:27:52.806Z,1.53
2019-01-15T15:32:18.745Z,1.73
2019-01-15T15:36:43.944Z,2.00
2019-01-15T15:41:09.577Z,2.03
2019-01-15T15:45:29.460Z,1.60
2019-01-15T15:49:58.774Z,1.93
2019-01-15T15:54:17.440Z,2.23
2019-01-15T15:58:40.317Z,2.63
2019-01-15T16:03:03.070Z,2.10
2019-01-15T16:07:38.225Z,2.90
2019-01-15T16:12:13.217Z,2.07
2019-01-15T16:16:28.556Z,2.57
2019-01-15T16:20:38.621Z,2.63
2019-01-15T16:25:01.583Z,2.43
2019-01-15T16:29:24.290Z,2.73
2019-01-15T16:33:47.521Z,1.80
2019-01-15T16:38:08.356Z,2.60
2019-01-15T16:42:27.309Z,2.40
2019-01-15T16:47:03.818Z,2.67
2019-01-15T16:51:22.464Z,3.43
2019-01-15T16:55:55.355Z,3.33
2019-01-15T17:00:19.143Z,2.87
2019-01-15T17:04:42.212Z,2.40
2019-01-15T17:09:11.320Z,2.70
2019-01-15T17:13:34.115Z,3.57
2019-01-15T17:18:03.834Z,3.17
2019-01-15T17:22:26.875Z,2.60
2019-01-15T17:26:47.091Z,2.50
2019-01-15T17:31:19.676Z,3.47
2019-01-15T17:35:42.649Z,2.40
2019-01-15T17:40:01.200Z,2.23
2019-01-15T17:44:16.179Z,1.60
2019-01-15T17:48:39.146Z,3.27
2019-01-15T17:52:58.014Z,1.30
2019-01-15T17:57:24.160Z,2.80
2019-01-15T18:01:47.384Z,2.97
2019-01-15T18:06:12.854Z,6.63
2019-01-15T18:10:32.955Z,2.70
2019-01-15T18:15:11.177Z,2.40
2019-01-15T18:19:36.717Z,2.80
2019-01-15T18:24:05.301Z,3.47
2019-01-15T18:28:31.438Z,2.53
2019-01-15T18:32:51.759Z,2.80
2019-01-15T18:37:27.357Z,2.57
2019-01-15T18:42:03.186Z,2.87
2019-01-15T18:46:23.277Z,1.47
2019-01-15T18:51:01.707Z,2.53
2019-01-15T18:55:28.975Z,1.77
2019-01-15T18:59:49.076Z,2.63
2019-01-15T19:04:08.046Z,2.50
2019-01-15T19:08:23.481Z,2.23
2019-01-15T19:12:45.993Z,2.40
2019-01-15T19:17:12.441Z,3.00
2019-01-15T19:21:30.807Z,2.40
2019-01-15T19:26:00.121Z,2.33
2019-01-15T19:30:27.791Z,1.63
2019-01-15T19:35:04.177Z,1.80
2019-01-15T19:39:24.478Z,1.70
2019-01-15T19:43:50.517Z,1.83
2019-01-15T19:48:09.081Z,1.47
2019-01-15T19:52:28.055Z,2.10
2019-01-15T19:56:48.465Z,1.80
2019-01-15T20:01:17.990Z,1.80
2019-01-15T20:05:36.856Z,1.60
2019-01-15T20:09:53.264Z,1.97
2019-01-15T20:14:23.803Z,1.50
2019-01-15T20:18:42.678Z,1.90
2019-01-15T20:23:12.813Z,1.53
2019-01-15T20:27:35.635Z,1.73
2019-01-15T20:32:01.817Z,1.63
2019-01-15T20:36:13.517Z,2.03
2019-01-15T20:40:51.947Z,2.47
2019-01-15T20:45:29.964Z,1.57
2019-01-15T20:49:49.967Z,1.97
2019-01-15T20:54:08.529Z,2.03
2019-01-15T20:58:27.089Z,1.70
2019-01-15T21:02:46.380Z,1.43
2019-01-15T21:07:09.235Z,1.73
2019-01-15T21:11:27.861Z,1.27
2019-01-15T21:15:39.503Z,2.10
2019-01-15T21:20:02.797Z,1.90
2019-01-15T21:24:25.947Z,2.13
2019-01-15T21:28:45.132Z,2.17
2019-01-15T21:33:06.075Z,1.70
2019-01-15T21:37:41.395Z,1.90
2019-01-15T21:42:07.130Z,1.27
2019-01-15T21:46:30.121Z,1.50
2019-01-15T21:50:50.197Z,1.67
2019-01-15T21:55:16.253Z,1.17
2019-01-15T21:59:42.691Z,1.73
2019-01-15T22:03:56.741Z,1.93
2019-01-15T22:08:31.584Z,1.27
2019-01-15T22:13:00.178Z,1.27
2019-01-15T22:17:13.316Z,0.80
2019-01-15T22:21:33.825Z,1.07
2019-01-15T22:26:06.009Z,0.97
2019-01-15T22:30:33.176Z,1.23
2019-01-15T22:34:51.965Z,1.53
2019-01-15T22:39:12.148Z,0.93
2019-01-15T22:43:23.133Z,1.10
2019-01-15T22:47:42.007Z,1.83
2019-01-15T22:52:20.226Z,1.17
2019-01-15T22:56:40.730Z,1.10
2019-01-15T23:01:09.433Z,1.30
2019-01-15T23:05:29.536Z,1.20
2019-01-15T23:09:52.281Z,1.70
2019-01-15T23:14:18.131Z,1.23
2019-01-15T23:18:37.020Z,1.77
2019-01-15T23:23:09.189Z,0.60
2019-01-15T23:27:44.957Z,1.50
2019-01-15T23:32:05.331Z,1.30
2019-01-15T23:36:30.750Z,1.30
2019-01-15T23:40:44.632Z,1.30
2019-01-15T23:45:10.577Z,1.20
2019-01-15T23:49:45.949Z,1.43
2019-01-15T23:54:21.279Z,1.50
2019-01-15T23:58:41.383Z,0.90
